createdAt,value
2022-10-15T00:02:45.600Z,12.78
2022-10-15T00:05:53.798Z,12.76
2022-10-15T00:09:05.584Z,12.76
2022-10-15T00:12:13.953Z,12.74
2022-10-15T00:15:22.081Z,12.73
2022-10-15T00:18:31.136Z,12.73
2022-10-15T00:21:39.893Z,12.70
2022-10-15T00:24:49.670Z,12.72
2022-10-15T00:27:57.820Z,12.76
2022-10-15T00:31:11.336Z,12.78
2022-10-15T00:34:20.027Z,12.70
2022-10-15T00:37:28.818Z,12.77
2022-10-15T00:40:42.049Z,12.76
2022-10-15T00:43:54.037Z,12.80
2022-10-15T00:47:10.290Z,12.85
2022-10-15T00:50:23.344Z,12.69
2022-10-15T00:53:32.339Z,12.73
2022-10-15T00:56:46.179Z,12.74
2022-10-15T00:59:59.582Z,12.63
2022-10-15T01:03:08.661Z,12.72
2022-10-15T01:06:17.723Z,12.74
2022-10-15T01:09:27.943Z,12.77
2022-10-15T01:12:58.557Z,12.69
2022-10-15T01:16:20.485Z,12.68
2022-10-15T01:19:59.713Z,12.68
2022-10-15T01:23:41.264Z,12.67
2022-10-15T01:27:37.793Z,12.70
2022-10-15T01:30:56.730Z,12.62
2022-10-15T01:37:39.316Z,12.69
2022-10-15T01:40:56.106Z,12.68
2022-10-15T01:44:12.484Z,12.65
2022-10-15T01:47:38.830Z,12.65
2022-10-15T01:50:52.254Z,12.64
2022-10-15T01:54:01.787Z,12.65
2022-10-15T01:57:13.805Z,12.67
2022-10-15T02:00:22.817Z,12.70
2022-10-15T02:03:32.368Z,12.53
2022-10-15T02:06:46.736Z,12.43
2022-10-15T02:10:07.678Z,12.47
2022-10-15T02:13:26.595Z,12.49
2022-10-15T02:16:44.888Z,12.59
2022-10-15T02:20:06.693Z,12.59
2022-10-15T02:23:22.089Z,12.61
2022-10-15T02:26:32.113Z,12.47
2022-10-15T02:29:45.011Z,12.54
2022-10-15T02:33:01.158Z,12.56
2022-10-15T02:36:12.006Z,12.46
2022-10-15T02:39:25.210Z,12.54
2022-10-15T02:42:33.706Z,12.50
2022-10-15T02:45:42.273Z,12.54
2022-10-15T02:48:50.535Z,12.50
2022-10-15T02:52:01.426Z,12.55
2022-10-15T02:55:10.847Z,12.46
2022-10-15T02:58:20.090Z,12.46
2022-10-15T03:01:28.532Z,12.43
2022-10-15T03:04:37.566Z,12.43
2022-10-15T03:07:47.388Z,12.47
2022-10-15T03:10:56.586Z,12.44
2022-10-15T03:14:05.828Z,12.50
2022-10-15T03:17:15.547Z,12.50
2022-10-15T03:20:24.700Z,12.39
2022-10-15T03:23:35.165Z,12.49
2022-10-15T03:26:49.584Z,12.51
2022-10-15T03:29:58.030Z,12.47
2022-10-15T03:33:10.020Z,12.45
2022-10-15T03:36:18.522Z,12.49
2022-10-15T03:39:28.234Z,12.45
2022-10-15T03:42:40.206Z,12.50
2022-10-15T03:45:52.993Z,12.48
2022-10-15T03:49:04.826Z,12.55
2022-10-15T03:52:13.210Z,12.48
2022-10-15T03:55:25.600Z,12.46
2022-10-15T03:58:34.747Z,12.51
2022-10-15T04:01:46.412Z,12.52
2022-10-15T04:04:55.835Z,12.50
2022-10-15T04:08:04.722Z,12.53
2022-10-15T04:11:21.912Z,12.66
2022-10-15T04:14:40.913Z,12.72
2022-10-15T04:17:50.003Z,12.82
2022-10-15T04:21:01.863Z,12.84
2022-10-15T04:24:11.029Z,12.85
2022-10-15T04:27:24.374Z,13.05
2022-10-15T04:30:32.937Z,13.02
2022-10-15T04:33:44.662Z,13.00
2022-10-15T04:36:53.103Z,13.02
2022-10-15T04:40:04.984Z,13.13
2022-10-15T04:43:16.383Z,13.12
2022-10-15T04:46:25.284Z,13.16
2022-10-15T04:49:33.662Z,13.20
2022-10-15T04:52:44.618Z,13.14
2022-10-15T04:55:54.680Z,13.21
2022-10-15T04:59:09.733Z,13.19
2022-10-15T05:02:37.868Z,13.23
2022-10-15T05:06:21.294Z,13.23
2022-10-15T05:09:31.105Z,13.19
2022-10-15T05:12:40.307Z,13.28
2022-10-15T05:15:52.745Z,13.30
2022-10-15T05:19:07.820Z,13.42
2022-10-15T05:22:18.943Z,13.35
2022-10-15T05:25:37.638Z,13.47
2022-10-15T05:28:47.160Z,13.40
2022-10-15T05:32:06.734Z,13.40
2022-10-15T05:35:15.559Z,13.43
2022-10-15T05:38:53.291Z,13.48
2022-10-15T05:42:01.593Z,13.52
2022-10-15T05:45:23.288Z,13.53
2022-10-15T05:48:33.537Z,13.57
2022-10-15T05:51:41.828Z,13.57
2022-10-15T05:54:58.474Z,13.63
2022-10-15T05:58:09.066Z,13.73
2022-10-15T06:01:17.489Z,13.75
2022-10-15T06:04:35.755Z,13.77
2022-10-15T06:07:44.254Z,13.84
2022-10-15T06:10:52.779Z,13.86
2022-10-15T06:14:01.066Z,13.93
2022-10-15T06:17:09.534Z,13.95
2022-10-15T06:20:19.626Z,14.05
2022-10-15T06:23:27.994Z,14.10
2022-10-15T06:26:36.509Z,14.11
2022-10-15T06:29:44.949Z,14.14
2022-10-15T06:32:55.155Z,14.20
2022-10-15T06:36:08.613Z,14.22
2022-10-15T06:39:17.107Z,14.26
2022-10-15T06:42:26.053Z,14.21
2022-10-15T06:45:38.682Z,14.15
2022-10-15T06:48:52.549Z,14.14
2022-10-15T06:52:03.797Z,14.20
2022-10-15T06:55:12.250Z,14.23
2022-10-15T06:58:20.821Z,14.13
2022-10-15T07:01:29.602Z,14.22
2022-10-15T07:04:38.195Z,14.26
2022-10-15T07:07:54.574Z,14.31
2022-10-15T07:11:04.943Z,14.43
2022-10-15T07:14:13.195Z,14.43
2022-10-15T07:17:21.386Z,14.50
2022-10-15T07:20:31.490Z,14.63
2022-10-15T07:23:41.946Z,14.64
2022-10-15T07:26:50.738Z,14.78
2022-10-15T07:29:59.151Z,14.91
2022-10-15T07:33:07.565Z,14.92
2022-10-15T07:36:16.968Z,14.82
2022-10-15T07:39:27.237Z,14.79
2022-10-15T07:42:35.656Z,14.84
2022-10-15T07:45:50.484Z,14.88
2022-10-15T07:48:58.775Z,14.78
2022-10-15T07:52:08.565Z,14.82
2022-10-15T07:55:18.927Z,14.80
2022-10-15T07:58:27.147Z,14.67
2022-10-15T08:01:35.383Z,14.72
2022-10-15T08:04:44.665Z,14.72
2022-10-15T08:07:53.290Z,14.79
2022-10-15T08:11:08.936Z,14.91
2022-10-15T08:14:17.901Z,15.06
2022-10-15T08:17:26.372Z,15.25
2022-10-15T08:20:34.857Z,15.37
2022-10-15T08:23:44.334Z,15.45
2022-10-15T08:26:54.385Z,15.40
2022-10-15T08:30:02.747Z,15.31
2022-10-15T08:33:11.435Z,15.26
2022-10-15T08:36:19.880Z,15.11
2022-10-15T08:39:30.193Z,15.06
2022-10-15T08:42:43.076Z,15.00
2022-10-15T08:45:58.832Z,15.04
2022-10-15T08:49:15.502Z,14.99
2022-10-15T08:52:32.252Z,14.96
2022-10-15T08:55:45.612Z,14.99
2022-10-15T08:59:05.965Z,15.05
2022-10-15T09:02:22.916Z,15.27
2022-10-15T09:05:45.409Z,15.33
2022-10-15T09:09:07.669Z,15.59
2022-10-15T09:12:44.365Z,15.76
2022-10-15T09:16:01.602Z,15.99
2022-10-15T09:19:18.845Z,16.22
2022-10-15T09:22:32.276Z,16.55
2022-10-15T09:25:50.872Z,16.93
2022-10-15T09:29:16.275Z,17.05
2022-10-15T09:32:34.856Z,17.30
2022-10-15T09:35:49.452Z,17.44
2022-10-15T09:39:14.042Z,17.78
2022-10-15T09:42:31.344Z,18.14
2022-10-15T09:45:40.030Z,18.25
2022-10-15T09:49:07.340Z,18.61
2022-10-15T09:52:27.410Z,18.58
2022-10-15T09:55:48.421Z,18.22
2022-10-15T09:58:59.414Z,18.17
2022-10-15T10:02:21.407Z,18.33
2022-10-15T10:05:36.456Z,18.29
2022-10-15T10:08:54.096Z,18.50
2022-10-15T10:12:08.329Z,18.56
2022-10-15T10:15:35.790Z,18.71
2022-10-15T10:18:50.505Z,18.68
2022-10-15T10:22:15.225Z,18.73
2022-10-15T10:25:39.189Z,18.94
2022-10-15T10:28:57.267Z,19.31
2022-10-15T10:32:21.341Z,19.08
2022-10-15T10:40:42.523Z,19.14
2022-10-15T10:43:56.910Z,19.47
2022-10-15T10:47:17.576Z,19.28
2022-10-15T10:50:33.324Z,18.99
2022-10-15T10:53:53.136Z,18.72
2022-10-15T10:57:03.432Z,18.77
2022-10-15T11:00:19.573Z,18.77
2022-10-15T11:03:37.918Z,18.85
2022-10-15T11:07:04.955Z,18.49
2022-10-15T11:10:24.290Z,18.64
2022-10-15T11:13:55.501Z,18.90
2022-10-15T11:17:19.080Z,19.12
2022-10-15T11:20:54.910Z,19.04
2022-10-15T11:24:17.862Z,19.01
2022-10-15T11:27:52.337Z,19.14
2022-10-15T11:31:12.005Z,19.24
2022-10-15T11:34:40.935Z,19.36
2022-10-15T11:38:07.152Z,19.91
2022-10-15T11:41:42.289Z,20.25
2022-10-15T11:45:29.664Z,20.74
2022-10-15T11:49:03.155Z,20.61
2022-10-15T11:52:47.839Z,20.35
2022-10-15T11:56:06.473Z,20.07
2022-10-15T11:59:31.862Z,20.14
2022-10-15T12:02:41.419Z,19.73
2022-10-15T12:05:56.793Z,19.94
2022-10-15T12:09:09.399Z,19.84
2022-10-15T12:12:35.234Z,19.73
2022-10-15T12:16:01.400Z,19.42
2022-10-15T12:19:19.308Z,19.51
2022-10-15T12:22:44.418Z,19.43
2022-10-15T12:25:53.842Z,19.36
2022-10-15T12:29:05.523Z,19.32
2022-10-15T12:32:25.865Z,19.28
2022-10-15T12:35:41.474Z,18.99
2022-10-15T12:39:00.915Z,18.95
2022-10-15T12:42:28.383Z,19.11
2022-10-15T12:45:42.362Z,19.24
2022-10-15T12:48:54.412Z,19.40
2022-10-15T12:52:42.858Z,19.21
2022-10-15T12:56:14.984Z,19.03
2022-10-15T12:59:53.463Z,18.94
2022-10-15T13:03:24.632Z,18.91
2022-10-15T13:06:38.213Z,18.96
2022-10-15T13:09:46.966Z,19.04
2022-10-15T13:13:05.353Z,19.02
2022-10-15T13:16:16.193Z,18.98
2022-10-15T13:19:29.773Z,18.98
2022-10-15T13:22:39.206Z,19.01
2022-10-15T13:25:48.148Z,19.06
2022-10-15T13:28:59.505Z,19.03
2022-10-15T13:32:19.147Z,19.05
2022-10-15T13:35:34.666Z,19.05
2022-10-15T13:38:47.224Z,19.05
2022-10-15T13:42:09.134Z,18.97
2022-10-15T13:45:20.968Z,18.81
2022-10-15T13:48:33.172Z,18.82
2022-10-15T13:51:44.943Z,18.74
2022-10-15T13:54:53.755Z,18.68
2022-10-15T13:58:07.360Z,18.75
2022-10-15T14:01:22.069Z,18.73
2022-10-15T14:04:33.596Z,18.62
2022-10-15T14:07:41.980Z,18.46
2022-10-15T14:10:55.357Z,18.43
2022-10-15T14:14:04.210Z,18.16
2022-10-15T14:17:25.004Z,18.11
2022-10-15T14:20:33.860Z,18.08
2022-10-15T14:23:46.368Z,17.98
2022-10-15T14:26:55.290Z,18.16
2022-10-15T14:30:06.503Z,18.29
2022-10-15T14:33:45.257Z,18.52
2022-10-15T15:05:57.654Z,18.49
2022-10-15T15:09:07.402Z,18.45
2022-10-15T15:12:24.281Z,18.50
2022-10-15T15:15:35.523Z,18.48
2022-10-15T15:18:46.423Z,18.42
2022-10-15T15:21:54.721Z,18.34
2022-10-15T15:25:15.643Z,18.29
2022-10-15T15:28:28.146Z,18.08
2022-10-15T15:31:37.379Z,17.79
2022-10-15T15:34:46.983Z,17.59
2022-10-15T15:37:58.755Z,17.38
2022-10-15T15:41:17.363Z,17.25
2022-10-15T15:44:26.451Z,17.12
2022-10-15T15:50:49.769Z,16.84
2022-10-15T15:54:02.346Z,16.85
2022-10-15T15:57:13.414Z,16.73
2022-10-15T16:00:24.446Z,16.78
2022-10-15T16:03:34.110Z,16.69
2022-10-15T16:06:43.552Z,16.68
2022-10-15T16:09:51.904Z,16.62
2022-10-15T16:13:02.226Z,16.54
2022-10-15T16:16:11.355Z,16.49
2022-10-15T16:19:20.088Z,16.45
2022-10-15T16:22:28.688Z,16.36
2022-10-15T16:25:37.515Z,16.24
2022-10-15T16:28:47.567Z,16.09
2022-10-15T16:31:56.261Z,15.97
2022-10-15T16:35:05.038Z,15.88
2022-10-15T16:38:13.695Z,15.83
2022-10-15T16:41:22.497Z,15.80
2022-10-15T16:44:32.384Z,15.85
2022-10-15T16:47:41.334Z,15.77
2022-10-15T16:51:00.037Z,15.70
2022-10-15T16:54:08.584Z,15.62
2022-10-15T16:57:17.098Z,15.52
2022-10-15T17:00:27.250Z,15.45
2022-10-15T17:03:38.287Z,15.41
2022-10-15T17:06:46.793Z,15.37
2022-10-15T17:09:56.621Z,15.38
2022-10-15T17:13:04.934Z,15.47
2022-10-15T17:16:18.390Z,15.57
2022-10-15T17:19:30.413Z,15.49
2022-10-15T17:22:41.947Z,15.51
2022-10-15T17:25:50.932Z,15.51
2022-10-15T17:29:03.573Z,15.54
2022-10-15T17:32:22.543Z,15.60
2022-10-15T17:35:31.857Z,15.61
2022-10-15T17:38:41.685Z,15.55
2022-10-15T17:41:52.245Z,15.43
2022-10-15T17:45:02.151Z,15.46
2022-10-15T17:48:12.754Z,15.33
2022-10-15T17:51:26.265Z,15.21
2022-10-15T17:54:40.215Z,15.27
2022-10-15T17:57:48.732Z,15.07
2022-10-15T18:01:01.232Z,14.82
2022-10-15T18:04:13.601Z,14.66
2022-10-15T18:07:23.152Z,14.45
2022-10-15T18:10:31.999Z,14.34
2022-10-15T18:13:40.416Z,14.26
2022-10-15T18:16:49.196Z,14.24
2022-10-15T18:19:59.167Z,14.18
2022-10-15T18:23:07.665Z,14.09
2022-10-15T18:26:20.752Z,14.01
2022-10-15T18:29:29.170Z,14.01
2022-10-15T18:32:37.844Z,14.08
2022-10-15T18:35:49.003Z,14.04
2022-10-15T18:38:59.013Z,14.06
2022-10-15T18:42:10.078Z,14.24
2022-10-15T18:45:18.879Z,14.39
2022-10-15T18:48:32.078Z,14.37
2022-10-15T18:51:45.801Z,14.38
2022-10-15T18:54:55.572Z,14.43
2022-10-15T18:58:04.074Z,14.58
2022-10-15T19:01:29.244Z,14.57
2022-10-15T19:04:37.789Z,14.54
2022-10-15T19:07:47.653Z,14.63
2022-10-15T19:10:56.013Z,14.59
2022-10-15T19:14:05.743Z,14.71
2022-10-15T19:17:14.115Z,14.57
2022-10-15T19:20:23.994Z,14.74
2022-10-15T19:23:33.977Z,14.64
2022-10-15T19:26:43.029Z,14.75
2022-10-15T19:29:51.539Z,14.70
2022-10-15T19:33:00.250Z,14.80
2022-10-15T19:36:09.178Z,14.75
2022-10-15T19:39:22.267Z,14.67
2022-10-15T19:42:31.230Z,14.64
2022-10-15T19:45:42.961Z,14.69
2022-10-15T19:48:51.321Z,14.65
2022-10-15T19:52:04.342Z,14.50
2022-10-15T19:55:14.503Z,14.50
2022-10-15T19:58:23.921Z,14.66
2022-10-15T20:01:33.118Z,14.65
2022-10-15T20:04:41.581Z,14.59
2022-10-15T20:07:50.317Z,14.70
2022-10-15T20:11:00.295Z,14.74
2022-10-15T20:14:08.879Z,14.70
2022-10-15T20:17:17.529Z,14.48
2022-10-15T20:20:26.274Z,14.45
2022-10-15T20:23:34.945Z,14.65
2022-10-15T20:26:44.611Z,14.73
2022-10-15T20:29:53.124Z,14.72
2022-10-15T20:33:01.723Z,14.68
2022-10-15T20:36:15.095Z,14.64
2022-10-15T20:39:24.857Z,14.49
2022-10-15T20:42:37.773Z,14.31
2022-10-15T20:45:47.337Z,14.08
2022-10-15T20:49:02.262Z,13.90
2022-10-15T20:52:15.751Z,13.83
2022-10-15T20:55:25.254Z,13.75
2022-10-15T20:58:35.270Z,13.65
2022-10-15T21:01:44.165Z,13.60
2022-10-15T21:04:53.599Z,13.61
2022-10-15T21:08:02.488Z,13.58
2022-10-15T21:11:11.975Z,13.64
2022-10-15T21:14:22.055Z,13.58
2022-10-15T21:17:30.368Z,13.56
2022-10-15T21:20:38.780Z,13.55
2022-10-15T21:23:47.093Z,13.57
2022-10-15T21:26:56.174Z,13.58
2022-10-15T21:30:07.441Z,13.53
2022-10-15T21:33:15.880Z,13.40
2022-10-15T21:36:26.724Z,13.30
2022-10-15T21:39:35.013Z,13.28
2022-10-15T21:42:43.426Z,13.46
2022-10-15T21:45:58.930Z,13.21
2022-10-15T21:49:11.051Z,13.31
2022-10-15T21:52:19.346Z,13.10
2022-10-15T21:55:30.462Z,12.94
2022-10-15T21:58:41.203Z,12.93
2022-10-15T22:01:50.970Z,13.08
2022-10-15T22:04:59.443Z,12.89
2022-10-15T22:08:08.875Z,12.73
2022-10-15T22:11:21.304Z,12.60
2022-10-15T22:14:29.706Z,12.67
2022-10-15T22:17:39.388Z,12.66
2022-10-15T22:20:48.192Z,12.64
2022-10-15T22:24:00.692Z,12.68
2022-10-15T22:27:09.324Z,12.56
2022-10-15T22:30:18.107Z,12.46
2022-10-15T22:33:27.697Z,12.43
2022-10-15T22:36:36.866Z,12.45
2022-10-15T22:39:46.171Z,12.56
2022-10-15T22:42:54.868Z,12.61
2022-10-15T22:46:03.740Z,12.56
2022-10-15T22:49:15.186Z,12.63
2022-10-15T22:52:23.994Z,12.72
2022-10-15T22:55:34.745Z,12.57
2022-10-15T22:58:44.051Z,12.48
2022-10-15T23:01:52.726Z,12.71
2022-10-15T23:05:02.339Z,12.44
2022-10-15T23:08:13.257Z,12.52
2022-10-15T23:11:25.002Z,12.55
2022-10-15T23:14:33.673Z,12.36
2022-10-15T23:17:42.053Z,12.32
2022-10-15T23:20:54.486Z,12.39
2022-10-15T23:24:04.395Z,12.25
2022-10-15T23:27:17.496Z,12.24
2022-10-15T23:30:26.309Z,12.22
2022-10-15T23:33:34.985Z,12.15
2022-10-15T23:36:46.154Z,12.13
2022-10-15T23:39:55.339Z,12.12
2022-10-15T23:43:04.431Z,12.04
2022-10-15T23:46:13.249Z,12.02
2022-10-15T23:49:23.126Z,12.17
2022-10-15T23:52:34.370Z,12.28
2022-10-15T23:55:43.421Z,12.04
2022-10-15T23:58:53.840Z,12.04
